CMB817 Details

Departure: RAF Mildenhall (EGUN)
Arrival: Ramstein Air Force Base (ETAR)
Notes: USTRANSCOM CONTRACT FLIGHT


Current Weather Information
EGUN 251056Z AUTO 32009G16KT 9999 BKN040 19/10 A3005 RMK AO2 SLP179 T01870100 $
ETAR 251056Z AUTO 36008KT 9999 BKN120 BKN190 20/08 A3001 RMK AO2 SLP163 T01970084 $